sensor_id;sensor_type;location;lat;lon;timestamp;temperature;humidity
41592;DHT22;28026;48.562;14.440;2023-04-06T00:01:11;0.70;99.90
41592;DHT22;28026;48.562;14.440;2023-04-06T00:03:42;0.50;99.90
41592;DHT22;28026;48.562;14.440;2023-04-06T00:06:13;0.50;99.90
41592;DHT22;28026;48.562;14.440;2023-04-06T00:08:44;0.50;99.90
41592;DHT22;28026;48.562;14.440;2023-04-06T00:11:15;0.60;99.90
41592;DHT22;28026;48.562;14.440;2023-04-06T00:13:47;0.60;99.90
41592;DHT22;28026;48.562;14.440;2023-04-06T00:16:20;0.60;99.90
41592;DHT22;28026;48.562;14.440;2023-04-06T00:18:51;0.60;99.90
41592;DHT22;28026;48.562;14.440;2023-04-06T00:21:22;0.50;99.90
41592;DHT22;28026;48.562;14.440;2023-04-06T00:23:53;0.40;99.90
41592;DHT22;28026;48.562;14.440;2023-04-06T00:26:24;0.20;99.90
41592;DHT22;28026;48.562;14.440;2023-04-06T00:28:55;0.20;99.90
41592;DHT22;28026;48.562;14.440;2023-04-06T00:31:26;0.20;99.90
41592;DHT22;28026;48.562;14.440;2023-04-06T00:33:58;0.20;99.90
41592;DHT22;28026;48.562;14.440;2023-04-06T00:36:29;0.10;99.90
41592;DHT22;28026;48.562;14.440;2023-04-06T00:39:00;0.10;99.90
41592;DHT22;28026;48.562;14.440;2023-04-06T00:41:31;0.10;99.90
41592;DHT22;28026;48.562;14.440;2023-04-06T00:44:02;0.10;99.90
41592;DHT22;28026;48.562;14.440;2023-04-06T00:46:33;0.10;99.90
41592;DHT22;28026;48.562;14.440;2023-04-06T00:49:04;0.10;99.90
41592;DHT22;28026;48.562;14.440;2023-04-06T00:51:35;0.00;99.90
41592;DHT22;28026;48.562;14.440;2023-04-06T00:54:07;0.00;99.90
41592;DHT22;28026;48.562;14.440;2023-04-06T00:56:38;0.10;99.90
41592;DHT22;28026;48.562;14.440;2023-04-06T00:59:09;0.00;99.90
41592;DHT22;28026;48.562;14.440;2023-04-06T01:01:41;0.00;99.90
41592;DHT22;28026;48.562;14.440;2023-04-06T01:04:12;-0.10;99.90
41592;DHT22;28026;48.562;14.440;2023-04-06T01:06:43;0.00;99.90
41592;DHT22;28026;48.562;14.440;2023-04-06T01:09:16;-0.10;99.90
41592;DHT22;28026;48.562;14.440;2023-04-06T01:11:47;-0.20;99.90
41592;DHT22;28026;48.562;14.440;2023-04-06T01:14:19;-0.50;99.90
41592;DHT22;28026;48.562;14.440;2023-04-06T01:16:51;-0.70;99.90
41592;DHT22;28026;48.562;14.440;2023-04-06T01:19:22;-0.60;99.90
41592;DHT22;28026;48.562;14.440;2023-04-06T01:21:54;-0.60;99.90
41592;DHT22;28026;48.562;14.440;2023-04-06T01:24:25;-0.70;99.90
41592;DHT22;28026;48.562;14.440;2023-04-06T01:26:56;-0.70;99.90
41592;DHT22;28026;48.562;14.440;2023-04-06T01:29:27;-0.60;99.90
41592;DHT22;28026;48.562;14.440;2023-04-06T01:31:58;-0.60;99.90
41592;DHT22;28026;48.562;14.440;2023-04-06T01:34:29;-0.90;99.90
41592;DHT22;28026;48.562;14.440;2023-04-06T01:37:00;-0.80;99.90
41592;DHT22;28026;48.562;14.440;2023-04-06T01:39:31;-0.80;99.90
41592;DHT22;28026;48.562;14.440;2023-04-06T01:42:02;-0.70;99.90
41592;DHT22;28026;48.562;14.440;2023-04-06T01:44:33;-0.70;99.90
41592;DHT22;28026;48.562;14.440;2023-04-06T01:47:04;-0.80;99.90
41592;DHT22;28026;48.562;14.440;2023-04-06T01:49:35;-0.80;99.90
41592;DHT22;28026;48.562;14.440;2023-04-06T01:52:06;-0.80;99.90
41592;DHT22;28026;48.562;14.440;2023-04-06T01:54:37;-0.80;99.90
41592;DHT22;28026;48.562;14.440;2023-04-06T01:57:09;-0.80;99.90
41592;DHT22;28026;48.562;14.440;2023-04-06T01:59:41;-0.80;99.90
41592;DHT22;28026;48.562;14.440;2023-04-06T02:02:12;-0.70;99.90
41592;DHT22;28026;48.562;14.440;2023-04-06T02:04:43;-0.80;99.90
41592;DHT22;28026;48.562;14.440;2023-04-06T02:07:14;-0.80;99.90
41592;DHT22;28026;48.562;14.440;2023-04-06T02:09:45;-0.90;99.90
41592;DHT22;28026;48.562;14.440;2023-04-06T02:12:16;-0.80;99.90
41592;DHT22;28026;48.562;14.440;2023-04-06T02:14:47;-0.80;99.90
41592;DHT22;28026;48.562;14.440;2023-04-06T02:17:18;-0.90;99.90
41592;DHT22;28026;48.562;14.440;2023-04-06T02:19:48;-1.10;99.90
41592;DHT22;28026;48.562;14.440;2023-04-06T02:22:19;-1.20;99.90
41592;DHT22;28026;48.562;14.440;2023-04-06T02:24:50;-1.20;99.90
41592;DHT22;28026;48.562;14.440;2023-04-06T02:27:21;-1.10;99.90
41592;DHT22;28026;48.562;14.440;2023-04-06T02:29:52;-1.10;99.90
41592;DHT22;28026;48.562;14.440;2023-04-06T02:32:24;-1.20;99.90
41592;DHT22;28026;48.562;14.440;2023-04-06T02:34:55;-1.20;99.90
41592;DHT22;28026;48.562;14.440;2023-04-06T02:37:26;-1.20;99.90
41592;DHT22;28026;48.562;14.440;2023-04-06T02:39:57;-1.30;99.90
41592;DHT22;28026;48.562;14.440;2023-04-06T02:42:28;-1.30;99.90
41592;DHT22;28026;48.562;14.440;2023-04-06T02:44:59;-1.50;99.90
41592;DHT22;28026;48.562;14.440;2023-04-06T02:47:30;-1.40;99.90
41592;DHT22;28026;48.562;14.440;2023-04-06T02:50:01;-1.40;99.90
41592;DHT22;28026;48.562;14.440;2023-04-06T02:52:32;-1.30;99.90
41592;DHT22;28026;48.562;14.440;2023-04-06T02:55:03;-1.30;99.90
41592;DHT22;28026;48.562;14.440;2023-04-06T02:57:37;-1.30;99.90
41592;DHT22;28026;48.562;14.440;2023-04-06T03:00:08;-1.40;99.90
41592;DHT22;28026;48.562;14.440;2023-04-06T03:02:40;-1.40;99.90
41592;DHT22;28026;48.562;14.440;2023-04-06T03:05:11;-1.40;99.90
41592;DHT22;28026;48.562;14.440;2023-04-06T03:07:42;-1.50;99.90
41592;DHT22;28026;48.562;14.440;2023-04-06T03:10:13;-1.60;99.90
41592;DHT22;28026;48.562;14.440;2023-04-06T03:12:44;-1.40;99.90
41592;DHT22;28026;48.562;14.440;2023-04-06T03:15:15;-1.50;99.90
41592;DHT22;28026;48.562;14.440;2023-04-06T03:17:45;-1.60;99.90
41592;DHT22;28026;48.562;14.440;2023-04-06T03:20:16;-1.70;99.90
41592;DHT22;28026;48.562;14.440;2023-04-06T03:22:47;-1.80;99.90
41592;DHT22;28026;48.562;14.440;2023-04-06T03:25:18;-1.80;99.90
41592;DHT22;28026;48.562;14.440;2023-04-06T03:27:49;-1.80;99.90
41592;DHT22;28026;48.562;14.440;2023-04-06T03:30:20;-1.90;99.90
41592;DHT22;28026;48.562;14.440;2023-04-06T03:32:51;-1.90;99.90
41592;DHT22;28026;48.562;14.440;2023-04-06T03:35:23;-1.90;99.90
41592;DHT22;28026;48.562;14.440;2023-04-06T03:37:54;-1.80;99.90
41592;DHT22;28026;48.562;14.440;2023-04-06T03:40:25;-1.80;99.90
41592;DHT22;28026;48.562;14.440;2023-04-06T03:42:56;-1.80;99.90
41592;DHT22;28026;48.562;14.440;2023-04-06T03:45:28;-1.80;99.90
41592;DHT22;28026;48.562;14.440;2023-04-06T03:47:58;-1.70;99.90
41592;DHT22;28026;48.562;14.440;2023-04-06T03:50:29;-1.80;99.90
41592;DHT22;28026;48.562;14.440;2023-04-06T03:53:00;-1.90;99.90
41592;DHT22;28026;48.562;14.440;2023-04-06T03:55:34;-1.90;99.90
41592;DHT22;28026;48.562;14.440;2023-04-06T03:58:05;-1.90;99.90
41592;DHT22;28026;48.562;14.440;2023-04-06T04:00:36;-2.10;99.90
41592;DHT22;28026;48.562;14.440;2023-04-06T04:03:08;-2.00;99.90
41592;DHT22;28026;48.562;14.440;2023-04-06T04:05:38;-2.00;99.90
41592;DHT22;28026;48.562;14.440;2023-04-06T04:08:09;-2.00;99.90
41592;DHT22;28026;48.562;14.440;2023-04-06T04:10:40;-2.00;99.90
41592;DHT22;28026;48.562;14.440;2023-04-06T04:13:11;-1.90;99.90
41592;DHT22;28026;48.562;14.440;2023-04-06T04:15:42;-2.00;99.90
41592;DHT22;28026;48.562;14.440;2023-04-06T04:18:13;-2.00;99.90
41592;DHT22;28026;48.562;14.440;2023-04-06T04:20:45;-2.10;99.90
41592;DHT22;28026;48.562;14.440;2023-04-06T04:23:16;-2.10;99.90
41592;DHT22;28026;48.562;14.440;2023-04-06T04:25:47;-2.10;99.90
41592;DHT22;28026;48.562;14.440;2023-04-06T04:28:18;-2.20;99.90
41592;DHT22;28026;48.562;14.440;2023-04-06T04:30:50;-2.20;99.90
41592;DHT22;28026;48.562;14.440;2023-04-06T04:33:21;-2.10;99.90
41592;DHT22;28026;48.562;14.440;2023-04-06T04:35:52;-2.20;99.90
41592;DHT22;28026;48.562;14.440;2023-04-06T04:38:23;-2.30;99.90
41592;DHT22;28026;48.562;14.440;2023-04-06T04:40:54;-2.30;99.90
41592;DHT22;28026;48.562;14.440;2023-04-06T04:43:25;-2.20;99.90
41592;DHT22;28026;48.562;14.440;2023-04-06T04:45:56;-2.20;99.90
41592;DHT22;28026;48.562;14.440;2023-04-06T04:48:27;-2.20;99.90
41592;DHT22;28026;48.562;14.440;2023-04-06T04:50:58;-2.10;99.90
41592;DHT22;28026;48.562;14.440;2023-04-06T04:53:29;-2.10;99.90
41592;DHT22;28026;48.562;14.440;2023-04-06T04:56:00;-2.20;99.90
41592;DHT22;28026;48.562;14.440;2023-04-06T04:58:31;-2.10;99.90
41592;DHT22;28026;48.562;14.440;2023-04-06T05:01:02;-2.00;99.90
41592;DHT22;28026;48.562;14.440;2023-04-06T05:03:33;-2.00;99.90
41592;DHT22;28026;48.562;14.440;2023-04-06T05:06:05;-2.00;99.90
41592;DHT22;28026;48.562;14.440;2023-04-06T05:08:36;-1.90;99.90
41592;DHT22;28026;48.562;14.440;2023-04-06T05:11:07;-1.80;99.90
41592;DHT22;28026;48.562;14.440;2023-04-06T05:13:39;-1.60;99.90
41592;DHT22;28026;48.562;14.440;2023-04-06T05:16:10;-1.70;99.90
41592;DHT22;28026;48.562;14.440;2023-04-06T05:18:41;-1.60;99.90
41592;DHT22;28026;48.562;14.440;2023-04-06T05:21:12;-1.40;99.90
41592;DHT22;28026;48.562;14.440;2023-04-06T05:23:43;-1.30;99.90
41592;DHT22;28026;48.562;14.440;2023-04-06T05:26:14;-1.20;99.90
41592;DHT22;28026;48.562;14.440;2023-04-06T05:28:45;-1.30;99.90
41592;DHT22;28026;48.562;14.440;2023-04-06T05:31:16;-1.50;99.90
41592;DHT22;28026;48.562;14.440;2023-04-06T05:33:48;-1.40;99.90
41592;DHT22;28026;48.562;14.440;2023-04-06T05:36:19;-1.30;99.90
41592;DHT22;28026;48.562;14.440;2023-04-06T05:38:50;-1.30;99.90
41592;DHT22;28026;48.562;14.440;2023-04-06T05:41:21;-1.30;99.90
41592;DHT22;28026;48.562;14.440;2023-04-06T05:43:53;-1.30;99.90
41592;DHT22;28026;48.562;14.440;2023-04-06T05:46:24;-1.40;99.90
41592;DHT22;28026;48.562;14.440;2023-04-06T05:48:55;-1.40;99.90
41592;DHT22;28026;48.562;14.440;2023-04-06T05:51:26;-1.30;99.90
41592;DHT22;28026;48.562;14.440;2023-04-06T05:53:57;-1.10;99.90
41592;DHT22;28026;48.562;14.440;2023-04-06T05:56:28;-1.10;99.90
41592;DHT22;28026;48.562;14.440;2023-04-06T05:59:00;-1.00;99.90
41592;DHT22;28026;48.562;14.440;2023-04-06T06:01:32;-0.80;99.90
41592;DHT22;28026;48.562;14.440;2023-04-06T06:04:05;-0.60;99.90
41592;DHT22;28026;48.562;14.440;2023-04-06T06:06:36;-0.40;99.90
41592;DHT22;28026;48.562;14.440;2023-04-06T06:09:07;-0.40;99.90
41592;DHT22;28026;48.562;14.440;2023-04-06T06:11:38;-0.80;99.90
41592;DHT22;28026;48.562;14.440;2023-04-06T06:14:09;-0.90;99.90
41592;DHT22;28026;48.562;14.440;2023-04-06T06:16:40;-0.90;99.90
41592;DHT22;28026;48.562;14.440;2023-04-06T06:19:11;-0.80;99.90
41592;DHT22;28026;48.562;14.440;2023-04-06T06:21:42;-0.60;99.90
41592;DHT22;28026;48.562;14.440;2023-04-06T06:24:13;-0.50;99.90
41592;DHT22;28026;48.562;14.440;2023-04-06T06:26:44;-0.40;99.90
41592;DHT22;28026;48.562;14.440;2023-04-06T06:29:15;-0.30;99.90
41592;DHT22;28026;48.562;14.440;2023-04-06T06:31:46;-0.30;99.90
41592;DHT22;28026;48.562;14.440;2023-04-06T06:34:17;-0.50;99.90
41592;DHT22;28026;48.562;14.440;2023-04-06T06:36:48;-0.30;99.90
41592;DHT22;28026;48.562;14.440;2023-04-06T06:39:19;-0.20;99.90
41592;DHT22;28026;48.562;14.440;2023-04-06T06:41:50;-0.20;99.90
41592;DHT22;28026;48.562;14.440;2023-04-06T06:44:21;0.10;99.90
41592;DHT22;28026;48.562;14.440;2023-04-06T06:46:52;0.30;99.90
41592;DHT22;28026;48.562;14.440;2023-04-06T06:49:23;0.50;99.90
41592;DHT22;28026;48.562;14.440;2023-04-06T06:51:54;0.50;99.90
41592;DHT22;28026;48.562;14.440;2023-04-06T06:54:25;0.70;99.90
41592;DHT22;28026;48.562;14.440;2023-04-06T06:56:56;0.50;99.90
41592;DHT22;28026;48.562;14.440;2023-04-06T06:59:27;0.40;99.90
41592;DHT22;28026;48.562;14.440;2023-04-06T07:01:58;0.40;99.90
41592;DHT22;28026;48.562;14.440;2023-04-06T07:04:29;0.60;99.90
41592;DHT22;28026;48.562;14.440;2023-04-06T07:06:59;0.60;99.90
41592;DHT22;28026;48.562;14.440;2023-04-06T07:09:31;0.60;99.90
41592;DHT22;28026;48.562;14.440;2023-04-06T07:12:03;0.80;99.90
41592;DHT22;28026;48.562;14.440;2023-04-06T07:14:34;0.90;99.90
41592;DHT22;28026;48.562;14.440;2023-04-06T07:17:07;1.10;99.90
41592;DHT22;28026;48.562;14.440;2023-04-06T07:19:38;1.30;99.90
41592;DHT22;28026;48.562;14.440;2023-04-06T07:22:09;1.40;99.90
41592;DHT22;28026;48.562;14.440;2023-04-06T07:24:40;1.50;99.90
41592;DHT22;28026;48.562;14.440;2023-04-06T07:27:11;1.80;99.90
41592;DHT22;28026;48.562;14.440;2023-04-06T07:29:42;2.00;99.90
41592;DHT22;28026;48.562;14.440;2023-04-06T07:32:13;2.10;99.90
41592;DHT22;28026;48.562;14.440;2023-04-06T07:34:45;2.20;99.90
41592;DHT22;28026;48.562;14.440;2023-04-06T07:37:17;2.20;99.90
41592;DHT22;28026;48.562;14.440;2023-04-06T07:39:48;2.40;99.90
41592;DHT22;28026;48.562;14.440;2023-04-06T07:42:19;3.00;99.90
41592;DHT22;28026;48.562;14.440;2023-04-06T07:44:49;3.30;99.90
41592;DHT22;28026;48.562;14.440;2023-04-06T07:47:20;3.50;99.90
41592;DHT22;28026;48.562;14.440;2023-04-06T07:49:53;4.40;99.90
41592;DHT22;28026;48.562;14.440;2023-04-06T07:52:26;4.40;99.90
41592;DHT22;28026;48.562;14.440;2023-04-06T07:54:58;4.10;99.90
41592;DHT22;28026;48.562;14.440;2023-04-06T07:57:29;4.20;99.90
41592;DHT22;28026;48.562;14.440;2023-04-06T08:00:00;4.20;99.90
41592;DHT22;28026;48.562;14.440;2023-04-06T08:02:32;4.10;99.90
41592;DHT22;28026;48.562;14.440;2023-04-06T08:05:03;3.90;99.90
41592;DHT22;28026;48.562;14.440;2023-04-06T08:07:34;3.50;99.90
41592;DHT22;28026;48.562;14.440;2023-04-06T08:10:06;4.00;99.90
41592;DHT22;28026;48.562;14.440;2023-04-06T08:12:37;3.70;99.90
41592;DHT22;28026;48.562;14.440;2023-04-06T08:15:08;4.10;99.90
41592;DHT22;28026;48.562;14.440;2023-04-06T08:17:40;4.60;99.90
41592;DHT22;28026;48.562;14.440;2023-04-06T08:20:11;5.20;99.90
41592;DHT22;28026;48.562;14.440;2023-04-06T08:22:42;4.80;99.90
41592;DHT22;28026;48.562;14.440;2023-04-06T08:25:13;5.20;99.90
41592;DHT22;28026;48.562;14.440;2023-04-06T08:27:44;4.80;99.90
41592;DHT22;28026;48.562;14.440;2023-04-06T08:30:15;4.60;99.90
41592;DHT22;28026;48.562;14.440;2023-04-06T08:32:46;4.90;99.90
41592;DHT22;28026;48.562;14.440;2023-04-06T08:35:17;5.90;99.90
41592;DHT22;28026;48.562;14.440;2023-04-06T08:37:48;5.30;99.90
41592;DHT22;28026;48.562;14.440;2023-04-06T08:40:19;5.70;99.90
41592;DHT22;28026;48.562;14.440;2023-04-06T08:42:54;4.80;99.90
41592;DHT22;28026;48.562;14.440;2023-04-06T08:45:26;5.30;99.90
41592;DHT22;28026;48.562;14.440;2023-04-06T08:47:58;6.20;99.90
41592;DHT22;28026;48.562;14.440;2023-04-06T08:50:32;6.50;99.90
41592;DHT22;28026;48.562;14.440;2023-04-06T08:53:06;6.00;99.90
41592;DHT22;28026;48.562;14.440;2023-04-06T08:55:38;6.40;99.90
41592;DHT22;28026;48.562;14.440;2023-04-06T08:58:13;7.50;99.90
41592;DHT22;28026;48.562;14.440;2023-04-06T09:00:45;8.20;99.20
41592;DHT22;28026;48.562;14.440;2023-04-06T09:03:16;8.70;98.40
41592;DHT22;28026;48.562;14.440;2023-04-06T09:05:50;9.00;99.80
41592;DHT22;28026;48.562;14.440;2023-04-06T09:08:21;9.50;97.50
41592;DHT22;28026;48.562;14.440;2023-04-06T09:10:52;9.50;97.00
41592;DHT22;28026;48.562;14.440;2023-04-06T09:13:23;9.70;98.00
41592;DHT22;28026;48.562;14.440;2023-04-06T09:16:02;9.90;98.00
41592;DHT22;28026;48.562;14.440;2023-04-06T09:18:35;10.00;96.40
41592;DHT22;28026;48.562;14.440;2023-04-06T09:21:07;9.80;97.50
41592;DHT22;28026;48.562;14.440;2023-04-06T09:23:40;8.50;95.00
41592;DHT22;28026;48.562;14.440;2023-04-06T09:26:15;7.90;96.80
41592;DHT22;28026;48.562;14.440;2023-04-06T09:28:50;8.80;96.90
41592;DHT22;28026;48.562;14.440;2023-04-06T09:31:27;8.30;97.70
41592;DHT22;28026;48.562;14.440;2023-04-06T09:34:01;6.80;98.10
41592;DHT22;28026;48.562;14.440;2023-04-06T09:36:34;7.10;98.90
41592;DHT22;28026;48.562;14.440;2023-04-06T09:39:08;7.60;97.30
41592;DHT22;28026;48.562;14.440;2023-04-06T09:41:39;8.40;95.40
41592;DHT22;28026;48.562;14.440;2023-04-06T09:44:11;7.10;97.20
41592;DHT22;28026;48.562;14.440;2023-04-06T09:46:45;7.00;98.40
41592;DHT22;28026;48.562;14.440;2023-04-06T09:49:18;6.40;98.20
41592;DHT22;28026;48.562;14.440;2023-04-06T09:52:00;6.50;97.90
41592;DHT22;28026;48.562;14.440;2023-04-06T09:54:35;7.30;98.70
41592;DHT22;28026;48.562;14.440;2023-04-06T09:57:23;8.70;97.10
41592;DHT22;28026;48.562;14.440;2023-04-06T10:00:08;10.40;97.20
41592;DHT22;28026;48.562;14.440;2023-04-06T10:02:53;10.30;96.00
41592;DHT22;28026;48.562;14.440;2023-04-06T10:05:58;10.10;94.40
41592;DHT22;28026;48.562;14.440;2023-04-06T10:08:36;10.20;94.40
41592;DHT22;28026;48.562;14.440;2023-04-06T10:11:12;8.90;95.00
41592;DHT22;28026;48.562;14.440;2023-04-06T10:13:45;8.50;95.60
41592;DHT22;28026;48.562;14.440;2023-04-06T10:16:19;9.80;95.30
41592;DHT22;28026;48.562;14.440;2023-04-06T10:18:55;9.50;92.90
41592;DHT22;28026;48.562;14.440;2023-04-06T10:21:39;8.10;94.30
41592;DHT22;28026;48.562;14.440;2023-04-06T10:24:12;7.50;95.20
41592;DHT22;28026;48.562;14.440;2023-04-06T10:26:43;7.60;96.30
41592;DHT22;28026;48.562;14.440;2023-04-06T10:29:47;7.90;97.50
41592;DHT22;28026;48.562;14.440;2023-04-06T10:32:20;8.70;98.90
41592;DHT22;28026;48.562;14.440;2023-04-06T10:35:11;8.20;95.00
41592;DHT22;28026;48.562;14.440;2023-04-06T10:40:25;8.90;95.50
41592;DHT22;28026;48.562;14.440;2023-04-06T10:43:13;9.40;95.80
41592;DHT22;28026;48.562;14.440;2023-04-06T10:45:57;9.70;94.50
41592;DHT22;28026;48.562;14.440;2023-04-06T10:48:44;10.90;94.70
41592;DHT22;28026;48.562;14.440;2023-04-06T10:51:18;10.20;92.80
41592;DHT22;28026;48.562;14.440;2023-04-06T10:53:55;10.70;92.90
41592;DHT22;28026;48.562;14.440;2023-04-06T10:56:29;10.90;95.00
41592;DHT22;28026;48.562;14.440;2023-04-06T10:59:06;11.40;93.40
41592;DHT22;28026;48.562;14.440;2023-04-06T11:01:37;8.70;94.30
41592;DHT22;28026;48.562;14.440;2023-04-06T11:04:08;8.00;95.70
41592;DHT22;28026;48.562;14.440;2023-04-06T11:06:47;9.10;94.30
41592;DHT22;28026;48.562;14.440;2023-04-06T11:09:26;10.10;94.10
41592;DHT22;28026;48.562;14.440;2023-04-06T11:11:59;10.40;95.30
41592;DHT22;28026;48.562;14.440;2023-04-06T11:14:31;10.40;93.90
41592;DHT22;28026;48.562;14.440;2023-04-06T11:17:02;10.60;94.60
41592;DHT22;28026;48.562;14.440;2023-04-06T11:19:34;10.50;91.80
41592;DHT22;28026;48.562;14.440;2023-04-06T11:22:09;9.90;91.80
41592;DHT22;28026;48.562;14.440;2023-04-06T11:24:40;9.80;91.90
41592;DHT22;28026;48.562;14.440;2023-04-06T11:27:11;10.40;93.20
41592;DHT22;28026;48.562;14.440;2023-04-06T11:29:45;9.30;91.50
41592;DHT22;28026;48.562;14.440;2023-04-06T11:32:21;8.30;91.90
41592;DHT22;28026;48.562;14.440;2023-04-06T11:34:53;8.90;92.70
41592;DHT22;28026;48.562;14.440;2023-04-06T11:37:26;9.60;92.40
41592;DHT22;28026;48.562;14.440;2023-04-06T11:39:58;11.20;92.70
41592;DHT22;28026;48.562;14.440;2023-04-06T11:42:29;11.10;91.20
41592;DHT22;28026;48.562;14.440;2023-04-06T11:45:00;12.00;92.80
41592;DHT22;28026;48.562;14.440;2023-04-06T11:47:36;10.60;90.90
41592;DHT22;28026;48.562;14.440;2023-04-06T11:50:14;9.80;91.60
41592;DHT22;28026;48.562;14.440;2023-04-06T11:52:45;8.90;92.20
41592;DHT22;28026;48.562;14.440;2023-04-06T11:55:28;9.20;92.60
41592;DHT22;28026;48.562;14.440;2023-04-06T11:57:59;9.90;92.20
41592;DHT22;28026;48.562;14.440;2023-04-06T12:00:30;11.00;92.80
41592;DHT22;28026;48.562;14.440;2023-04-06T12:03:04;10.70;90.60
41592;DHT22;28026;48.562;14.440;2023-04-06T12:05:36;10.10;90.40
41592;DHT22;28026;48.562;14.440;2023-04-06T12:08:07;10.10;91.50
41592;DHT22;28026;48.562;14.440;2023-04-06T12:10:38;10.10;92.10
41592;DHT22;28026;48.562;14.440;2023-04-06T12:13:09;9.80;93.00
41592;DHT22;28026;48.562;14.440;2023-04-06T12:15:40;9.00;90.90
41592;DHT22;28026;48.562;14.440;2023-04-06T12:18:11;8.30;93.00
41592;DHT22;28026;48.562;14.440;2023-04-06T12:20:42;8.40;93.50
41592;DHT22;28026;48.562;14.440;2023-04-06T12:23:13;8.50;93.50
41592;DHT22;28026;48.562;14.440;2023-04-06T12:25:44;9.50;93.10
41592;DHT22;28026;48.562;14.440;2023-04-06T12:28:15;10.30;92.50
41592;DHT22;28026;48.562;14.440;2023-04-06T12:30:46;10.70;90.80
41592;DHT22;28026;48.562;14.440;2023-04-06T12:33:17;10.20;90.50
41592;DHT22;28026;48.562;14.440;2023-04-06T12:35:48;9.90;91.80
41592;DHT22;28026;48.562;14.440;2023-04-06T12:38:19;9.30;91.70
41592;DHT22;28026;48.562;14.440;2023-04-06T12:40:50;8.80;93.40
41592;DHT22;28026;48.562;14.440;2023-04-06T12:43:21;9.00;90.90
41592;DHT22;28026;48.562;14.440;2023-04-06T12:45:53;10.30;92.90
41592;DHT22;28026;48.562;14.440;2023-04-06T12:48:24;11.30;93.00
41592;DHT22;28026;48.562;14.440;2023-04-06T12:50:59;11.10;90.10
41592;DHT22;28026;48.562;14.440;2023-04-06T12:53:33;9.70;91.70
41592;DHT22;28026;48.562;14.440;2023-04-06T12:56:18;8.60;91.90
41592;DHT22;28026;48.562;14.440;2023-04-06T12:58:52;8.40;92.90
41592;DHT22;28026;48.562;14.440;2023-04-06T13:01:23;8.90;93.00
41592;DHT22;28026;48.562;14.440;2023-04-06T13:03:56;10.10;92.10
41592;DHT22;28026;48.562;14.440;2023-04-06T13:06:28;9.60;93.80
41592;DHT22;28026;48.562;14.440;2023-04-06T13:08:59;9.90;91.10
41592;DHT22;28026;48.562;14.440;2023-04-06T13:11:30;10.00;92.70
41592;DHT22;28026;48.562;14.440;2023-04-06T13:14:01;9.50;90.70
41592;DHT22;28026;48.562;14.440;2023-04-06T13:16:32;9.60;90.70
41592;DHT22;28026;48.562;14.440;2023-04-06T13:19:03;8.90;91.40
41592;DHT22;28026;48.562;14.440;2023-04-06T13:21:34;8.80;92.20
41592;DHT22;28026;48.562;14.440;2023-04-06T13:24:05;8.70;91.80
41592;DHT22;28026;48.562;14.440;2023-04-06T13:26:36;8.90;92.20
41592;DHT22;28026;48.562;14.440;2023-04-06T13:29:07;9.50;93.40
41592;DHT22;28026;48.562;14.440;2023-04-06T13:31:38;9.60;91.90
41592;DHT22;28026;48.562;14.440;2023-04-06T13:34:09;10.40;91.20
41592;DHT22;28026;48.562;14.440;2023-04-06T13:36:41;9.50;91.90
41592;DHT22;28026;48.562;14.440;2023-04-06T13:39:13;10.30;90.80
41592;DHT22;28026;48.562;14.440;2023-04-06T13:41:43;10.00;90.50
41592;DHT22;28026;48.562;14.440;2023-04-06T13:44:15;9.90;91.80
41592;DHT22;28026;48.562;14.440;2023-04-06T13:46:46;10.20;90.40
41592;DHT22;28026;48.562;14.440;2023-04-06T13:49:18;12.20;92.00
41592;DHT22;28026;48.562;14.440;2023-04-06T13:51:48;13.40;91.20
41592;DHT22;28026;48.562;14.440;2023-04-06T13:54:19;12.70;91.20
41592;DHT22;28026;48.562;14.440;2023-04-06T13:56:51;12.00;91.50
41592;DHT22;28026;48.562;14.440;2023-04-06T13:59:22;11.80;92.10
41592;DHT22;28026;48.562;14.440;2023-04-06T14:01:53;12.60;91.30
41592;DHT22;28026;48.562;14.440;2023-04-06T14:04:24;13.20;90.70
41592;DHT22;28026;48.562;14.440;2023-04-06T14:06:55;13.00;90.70
41592;DHT22;28026;48.562;14.440;2023-04-06T14:09:28;11.90;89.00
41592;DHT22;28026;48.562;14.440;2023-04-06T14:12:00;11.50;91.00
41592;DHT22;28026;48.562;14.440;2023-04-06T14:14:31;11.50;91.50
41592;DHT22;28026;48.562;14.440;2023-04-06T14:17:01;10.80;91.60
41592;DHT22;28026;48.562;14.440;2023-04-06T14:19:32;10.70;91.50
41592;DHT22;28026;48.562;14.440;2023-04-06T14:22:03;10.70;92.20
41592;DHT22;28026;48.562;14.440;2023-04-06T14:24:35;11.30;93.10
41592;DHT22;28026;48.562;14.440;2023-04-06T14:27:06;12.30;91.80
41592;DHT22;28026;48.562;14.440;2023-04-06T14:29:37;12.70;91.90
41592;DHT22;28026;48.562;14.440;2023-04-06T14:32:08;13.30;90.70
41592;DHT22;28026;48.562;14.440;2023-04-06T14:34:39;13.60;91.10
41592;DHT22;28026;48.562;14.440;2023-04-06T14:37:10;13.60;90.00
41592;DHT22;28026;48.562;14.440;2023-04-06T14:39:41;13.40;88.60
41592;DHT22;28026;48.562;14.440;2023-04-06T14:42:12;13.30;90.40
41592;DHT22;28026;48.562;14.440;2023-04-06T14:44:43;12.30;89.30
41592;DHT22;28026;48.562;14.440;2023-04-06T14:47:15;12.20;90.90
41592;DHT22;28026;48.562;14.440;2023-04-06T14:49:51;12.30;90.80
41592;DHT22;28026;48.562;14.440;2023-04-06T14:52:23;12.60;91.00
41592;DHT22;28026;48.562;14.440;2023-04-06T14:54:54;12.50;89.40
41592;DHT22;28026;48.562;14.440;2023-04-06T14:57:25;12.50;90.40
41592;DHT22;28026;48.562;14.440;2023-04-06T14:59:56;12.00;88.10
41592;DHT22;28026;48.562;14.440;2023-04-06T15:02:27;11.50;89.50
41592;DHT22;28026;48.562;14.440;2023-04-06T15:04:58;10.50;91.70
41592;DHT22;28026;48.562;14.440;2023-04-06T15:07:29;10.80;91.90
41592;DHT22;28026;48.562;14.440;2023-04-06T15:10:00;11.70;92.00
41592;DHT22;28026;48.562;14.440;2023-04-06T15:12:31;12.70;90.10
41592;DHT22;28026;48.562;14.440;2023-04-06T15:15:03;13.30;85.70
41592;DHT22;28026;48.562;14.440;2023-04-06T15:17:35;12.20;87.00
41592;DHT22;28026;48.562;14.440;2023-04-06T15:20:06;12.60;86.00
41592;DHT22;28026;48.562;14.440;2023-04-06T15:22:38;12.70;84.10
41592;DHT22;28026;48.562;14.440;2023-04-06T15:25:08;12.80;87.10
41592;DHT22;28026;48.562;14.440;2023-04-06T15:27:39;12.50;85.00
41592;DHT22;28026;48.562;14.440;2023-04-06T15:30:11;12.20;89.00
41592;DHT22;28026;48.562;14.440;2023-04-06T15:32:55;12.10;85.60
41592;DHT22;28026;48.562;14.440;2023-04-06T15:35:31;12.30;87.10
41592;DHT22;28026;48.562;14.440;2023-04-06T15:38:04;11.90;89.90
41592;DHT22;28026;48.562;14.440;2023-04-06T15:40:48;12.10;89.10
41592;DHT22;28026;48.562;14.440;2023-04-06T15:43:19;11.10;90.40
41592;DHT22;28026;48.562;14.440;2023-04-06T15:45:50;10.90;90.60
41592;DHT22;28026;48.562;14.440;2023-04-06T15:48:21;10.50;91.10
41592;DHT22;28026;48.562;14.440;2023-04-06T15:50:56;10.20;91.40
41592;DHT22;28026;48.562;14.440;2023-04-06T15:53:28;9.90;91.60
41592;DHT22;28026;48.562;14.440;2023-04-06T15:56:03;9.80;92.20